Time;durP1;ratioP1;P1;durP2;ratioP2;P2;SDS_P1;SDS_P2;PMS_P1;PMS_P2;Temp;Humidity;BMP_temperature;BMP_pressure;BME280_temperature;BME280_humidity;BME280_pressure;Samples;Min_cycle;Max_cycle;Signal;HPM_P1;HPM_P2
2024/02/08 05:31:08;;;;;;;0.10;0.10;;;13.30;88.50;;;;;;6138534;23;19924;-81
2024/02/08 05:33:34;;;;;;;0.15;0.15;;;13.20;88.70;;;;;;6126565;23;20061;-82
2024/02/08 05:36:06;;;;;;;0.20;0.20;;;13.20;88.80;;;;;;6128689;23;20556;-81
2024/02/08 05:38:37;;;;;;;0.10;0.10;;;13.20;88.90;;;;;;6103571;23;20002;-80
2024/02/08 05:41:07;;;;;;;0.10;0.10;;;13.20;88.90;;;;;;6129057;23;19998;-80
2024/02/08 05:43:41;;;;;;;0.10;0.10;;;13.20;89.10;;;;;;6129316;23;20102;-82
2024/02/08 05:46:09;;;;;;;0.10;0.10;;;13.10;89.30;;;;;;6129608;23;20036;-82
2024/02/08 05:48:39;;;;;;;0.10;0.10;;;13.10;89.30;;;;;;6103454;23;20039;-81
2024/02/08 05:51:09;;;;;;;0.10;0.10;;;13.00;89.30;;;;;;6130831;23;20002;-81
2024/02/08 05:53:40;;;;;;;0.13;0.13;;;13.00;89.60;;;;;;6131404;23;19998;-81
2024/02/08 05:56:08;;;;;;;0.10;0.10;;;12.90;89.70;;;;;;6105726;23;20356;-84
2024/02/08 05:58:34;;;;;;;0.10;0.10;;;12.80;90.10;;;;;;6105222;23;20016;-80
2024/02/08 06:01:05;;;;;;;0.10;0.10;;;12.80;90.10;;;;;;6130742;23;20028;-87
2024/02/08 06:03:37;;;;;;;0.10;0.10;;;12.70;89.90;;;;;;6105821;23;20006;-87
2024/02/08 06:06:06;;;;;;;0.20;0.20;;;12.80;89.90;;;;;;6105513;23;20012;-86
2024/02/08 06:08:42;;;;;;;0.10;0.10;;;12.80;89.60;;;;;;6130842;23;20326;-81
2024/02/08 06:11:19;;;;;;;0.10;0.10;;;12.80;89.60;;;;;;6105736;23;20347;-83
2024/02/08 06:13:55;;;;;;;0.10;0.10;;;12.80;89.30;;;;;;6105923;23;20006;-89
2024/02/08 06:16:32;;;;;;;0.10;0.10;;;12.80;89.50;;;;;;6106204;23;20334;-89
2024/02/08 06:19:02;;;;;;;0.10;0.10;;;12.60;89.70;;;;;;6106213;23;20430;-90
2024/02/08 06:21:41;;;;;;;0.10;0.10;;;12.60;89.60;;;;;;6106060;23;20060;-84
2024/02/08 06:24:29;;;;;;;0.08;0.08;;;12.40;89.80;;;;;;6104680;23;20006;-87
2024/02/08 06:27:02;;;;;;;0.10;0.10;;;12.40;89.90;;;;;;6130822;23;20008;-81
2024/02/08 06:29:43;;;;;;;0.10;0.10;;;12.40;90.20;;;;;;6130459;23;19998;-86
2024/02/08 06:37:42;;;;;;;0.10;0.10;;;12.20;90.20;;;;;;6130668;23;20010;-85
2024/02/08 06:40:17;;;;;;;0.10;0.10;;;12.20;90.20;;;;;;6129492;23;20051;-86
2024/02/08 07:37:27;;;;;;;0.10;0.10;;;12.30;91.50;;;;;;6130614;23;20017;-83
2024/02/08 07:40:18;;;;;;;0.10;0.10;;;12.30;91.40;;;;;;6104839;23;20010;-85
2024/02/08 07:42:43;;;;;;;0.10;0.10;;;12.30;91.40;;;;;;6130169;23;20005;-83
2024/02/08 07:45:12;;;;;;;0.10;0.10;;;12.30;91.50;;;;;;6130815;23;20002;-83
2024/02/08 07:47:39;;;;;;;0.10;0.10;;;12.30;91.30;;;;;;6130420;23;20002;-83
2024/02/08 07:50:07;;;;;;;0.10;0.10;;;12.40;91.20;;;;;;6130582;23;20353;-83
2024/02/08 07:52:55;;;;;;;0.10;0.10;;;12.40;91.10;;;;;;6130396;23;20025;-85
2024/02/08 07:55:46;;;;;;;0.10;0.10;;;12.40;91.10;;;;;;6104578;23;20006;-84
2024/02/08 07:58:14;;;;;;;0.10;0.10;;;12.40;91.20;;;;;;6130023;23;20468;-84
2024/02/08 08:03:10;;;;;;;0.10;0.10;;;12.40;91.20;;;;;;6131035;23;20005;-84
2024/02/08 08:05:42;;;;;;;0.10;0.10;;;12.30;91.20;;;;;;6104245;23;20006;-84
2024/02/08 08:08:32;;;;;;;0.10;0.10;;;12.30;91.20;;;;;;6104656;23;20374;-83
2024/02/08 08:11:02;;;;;;;0.13;0.13;;;12.30;91.30;;;;;;6130474;23;20009;-83
2024/02/08 08:18:57;;;;;;;0.10;0.10;;;12.20;91.40;;;;;;6130079;23;20379;-82
2024/02/08 08:21:27;;;;;;;0.10;0.10;;;12.30;91.60;;;;;;6104307;23;20342;-84
2024/02/08 08:24:02;;;;;;;0.10;0.10;;;12.30;91.60;;;;;;6129933;23;20030;-83
2024/02/08 08:26:43;;;;;;;0.10;0.10;;;12.30;91.40;;;;;;6104122;23;20379;-83
2024/02/08 08:29:18;;;;;;;0.10;0.10;;;12.30;91.40;;;;;;6129823;23;20002;-84
2024/02/08 08:31:53;;;;;;;0.10;0.10;;;12.40;91.30;;;;;;6130290;23;20021;-84
2024/02/08 08:37:02;;;;;;;0.10;0.10;;;12.30;91.40;;;;;;6130555;23;20629;-85
2024/02/08 08:42:23;;;;;;;0.10;0.10;;;12.20;91.70;;;;;;6130491;23;20464;-83
2024/02/08 08:44:51;;;;;;;0.10;0.10;;;12.20;91.60;;;;;;6104158;23;20029;-85
2024/02/08 08:47:18;;;;;;;0.10;0.10;;;12.20;91.80;;;;;;6130278;23;20006;-84
2024/02/08 08:49:50;;;;;;;0.10;0.10;;;12.20;91.80;;;;;;6103805;23;20006;-85
2024/02/08 08:52:23;;;;;;;0.10;0.10;;;12.20;92.30;;;;;;6129864;23;20005;-83
2024/02/08 08:54:57;;;;;;;0.17;0.10;;;12.20;92.60;;;;;;6130194;23;20077;-84
2024/02/08 08:57:25;;;;;;;0.10;0.10;;;12.10;92.40;;;;;;6129837;23;20006;-83
2024/02/08 08:59:56;;;;;;;0.10;0.10;;;12.10;92.10;;;;;;6130181;23;20081;-85
2024/02/08 09:02:22;;;;;;;0.10;0.10;;;12.20;91.90;;;;;;6104293;23;20006;-84
2024/02/08 09:04:51;;;;;;;0.15;0.15;;;12.20;91.80;;;;;;6103566;23;20526;-84
2024/02/08 09:07:17;;;;;;;0.10;0.10;;;12.20;91.60;;;;;;6129965;23;20002;-84
2024/02/08 09:09:57;;;;;;;0.10;0.10;;;12.20;91.80;;;;;;6103557;23;20006;-84
2024/02/08 09:12:30;;;;;;;0.10;0.10;;;12.30;91.40;;;;;;6130254;23;19998;-84
2024/02/08 09:15:19;;;;;;;0.10;0.10;;;12.20;91.40;;;;;;6103704;23;20081;-84
2024/02/08 09:17:51;;;;;;;0.10;0.10;;;12.20;91.50;;;;;;6103992;23;20063;-84
2024/02/08 09:20:21;;;;;;;0.10;0.10;;;12.30;91.50;;;;;;6103700;23;20426;-83
2024/02/08 09:22:52;;;;;;;0.10;0.10;;;12.30;91.40;;;;;;6103929;23;20013;-84
2024/02/08 09:25:19;;;;;;;0.10;0.10;;;12.40;91.20;;;;;;6103877;23;20010;-85
2024/02/08 09:27:47;;;;;;;0.10;0.10;;;12.40;91.30;;;;;;6103710;23;20014;-84
2024/02/08 09:30:15;;;;;;;0.10;0.10;;;12.40;91.40;;;;;;6129935;23;20076;-83
2024/02/08 09:32:44;;;;;;;0.10;0.10;;;12.50;91.40;;;;;;6129593;23;20037;-85
2024/02/08 09:35:13;;;;;;;0.10;0.10;;;12.50;91.20;;;;;;6103820;23;20441;-84
2024/02/08 09:37:45;;;;;;;0.10;0.10;;;12.50;90.60;;;;;;6103653;23;20037;-84
2024/02/08 09:42:57;;;;;;;0.10;0.10;;;12.60;90.40;;;;;;6129814;23;20037;-83
2024/02/08 09:48:08;;;;;;;0.10;0.10;;;12.80;90.30;;;;;;6129977;23;20033;-83
2024/02/08 09:50:43;;;;;;;0.10;0.10;;;12.80;89.80;;;;;;6103709;23;20333;-84
2024/02/08 09:53:17;;;;;;;0.10;0.10;;;12.80;90.20;;;;;;6103725;23;20006;-83
2024/02/08 09:55:57;;;;;;;0.10;0.10;;;12.70;89.50;;;;;;6103653;23;20002;-83
2024/02/08 09:58:34;;;;;;;0.10;0.10;;;12.80;89.90;;;;;;6103377;23;20006;-84
2024/02/08 10:01:30;;;;;;;0.10;0.10;;;12.90;89.80;;;;;;6103704;23;20010;-83
2024/02/08 10:04:04;;;;;;;0.10;0.10;;;12.90;89.70;;;;;;6103847;23;20013;-84
2024/02/08 10:09:36;;;;;;;0.10;0.10;;;12.80;88.90;;;;;;6129964;23;20009;-83
2024/02/08 10:12:11;;;;;;;0.10;0.10;;;12.80;89.10;;;;;;6103537;23;20009;-84
2024/02/08 10:14:41;;;;;;;0.10;0.10;;;12.80;89.00;;;;;;6103391;23;20054;-83
2024/02/08 10:17:18;;;;;;;0.10;0.10;;;12.90;88.70;;;;;;6103250;23;20444;-84
2024/02/08 10:22:53;;;;;;;0.10;0.10;;;13.10;87.70;;;;;;6129323;23;20049;-83
2024/02/08 10:28:31;;;;;;;0.10;0.10;;;13.00;87.20;;;;;;6129258;23;20066;-83
2024/02/08 10:31:05;;;;;;;0.15;0.10;;;13.10;86.90;;;;;;6106288;23;20049;-83
2024/02/08 10:33:38;;;;;;;0.10;0.10;;;13.10;87.00;;;;;;6130045;23;20426;-83
2024/02/08 10:36:15;;;;;;;0.10;0.10;;;13.10;87.00;;;;;;6129706;23;20516;-83
2024/02/08 10:38:56;;;;;;;0.10;0.10;;;13.20;87.00;;;;;;6130354;23;20084;-83
2024/02/08 10:41:37;;;;;;;0.10;0.10;;;13.10;87.60;;;;;;6129853;23;20434;-84
2024/02/08 10:44:17;;;;;;;0.10;0.10;;;13.10;87.80;;;;;;6130799;23;20010;-84
2024/02/08 10:46:44;;;;;;;0.10;0.10;;;13.00;87.80;;;;;;6131073;23;20442;-82
2024/02/08 10:49:12;;;;;;;0.30;0.15;;;13.00;88.00;;;;;;6131256;23;20402;-82
2024/02/08 10:51:43;;;;;;;0.10;0.10;;;13.00;88.30;;;;;;6130979;23;20048;-84
2024/02/08 10:54:23;;;;;;;0.10;0.10;;;13.10;88.30;;;;;;6130210;23;20516;-83
2024/02/08 10:57:06;;;;;;;0.20;0.20;;;13.10;88.50;;;;;;6131106;23;20056;-82
2024/02/08 10:59:47;;;;;;;0.10;0.10;;;13.10;88.30;;;;;;6129487;23;20334;-83
2024/02/08 11:02:35;;;;;;;0.10;0.10;;;13.20;88.40;;;;;;6131060;23;20120;-82
2024/02/08 11:05:21;;;;;;;0.10;0.10;;;13.20;88.00;;;;;;6131112;23;20084;-83
2024/02/08 11:07:53;;;;;;;0.10;0.10;;;13.20;87.70;;;;;;6131001;23;20034;-84
2024/02/08 11:10:31;;;;;;;0.10;0.10;;;13.30;87.70;;;;;;6130860;23;19998;-84
2024/02/08 11:13:02;;;;;;;0.10;0.10;;;13.30;87.70;;;;;;6130990;23;20002;-79
2024/02/08 11:15:38;;;;;;;0.10;0.10;;;13.30;87.80;;;;;;6130622;23;20442;-83
2024/02/08 11:18:05;;;;;;;0.10;0.10;;;13.30;87.90;;;;;;6130537;23;20009;-83
2024/02/08 11:20:57;;;;;;;0.10;0.10;;;13.30;88.00;;;;;;6129122;23;20018;-83
2024/02/08 11:23:23;;;;;;;0.10;0.10;;;13.30;87.90;;;;;;6130178;23;20006;-83
2024/02/08 11:25:53;;;;;;;0.10;0.10;;;13.30;87.80;;;;;;6130989;23;20006;-77
2024/02/08 11:28:26;;;;;;;0.10;0.10;;;13.30;87.80;;;;;;6130429;23;20366;-78
2024/02/08 11:30:53;;;;;;;0.10;0.10;;;13.20;87.60;;;;;;6129110;23;20398;-83
2024/02/08 11:33:30;;;;;;;0.10;0.10;;;13.20;87.60;;;;;;6130576;23;20032;-82
2024/02/08 11:36:13;;;;;;;0.10;0.10;;;13.20;87.00;;;;;;6128757;23;20005;-82
2024/02/08 11:38:46;;;;;;;0.10;0.10;;;13.10;86.70;;;;;;6130586;23;20410;-78
2024/02/08 11:41:14;;;;;;;0.10;0.10;;;13.20;87.10;;;;;;6130885;23;20006;-78
2024/02/08 11:43:48;;;;;;;0.10;0.10;;;13.10;87.20;;;;;;6130414;23;20453;-80
2024/02/08 11:46:18;;;;;;;0.10;0.10;;;13.10;87.30;;;;;;6130629;23;20013;-85
2024/02/08 11:48:48;;;;;;;0.10;0.10;;;13.10;86.40;;;;;;6130065;23;20171;-81
2024/02/08 11:51:22;;;;;;;0.10;0.10;;;13.10;85.70;;;;;;6129377;23;20034;-84
2024/02/08 11:54:00;;;;;;;0.10;0.10;;;13.20;85.50;;;;;;6130954;23;20339;-88
2024/02/08 11:56:29;;;;;;;0.10;0.10;;;13.30;85.00;;;;;;6130477;23;20312;-78
2024/02/08 11:58:55;;;;;;;0.10;0.10;;;13.30;84.50;;;;;;6130440;23;20006;-82
2024/02/08 12:01:25;;;;;;;0.13;0.13;;;13.30;84.30;;;;;;6154152;23;20002;-81
2024/02/08 12:03:53;;;;;;;0.10;0.10;;;13.30;84.20;;;;;;6130711;23;20002;-82
2024/02/08 12:06:22;;;;;;;0.10;0.10;;;13.40;84.60;;;;;;6128626;23;20446;-82
2024/02/08 12:09:04;;;;;;;0.10;0.10;;;13.40;83.90;;;;;;6129136;23;20465;-81
2024/02/08 12:11:31;;;;;;;0.10;0.10;;;13.50;84.30;;;;;;6152842;23;20002;-81
2024/02/08 12:14:06;;;;;;;0.10;0.10;;;13.40;84.20;;;;;;6128502;23;20346;-82
2024/02/08 12:16:33;;;;;;;0.10;0.10;;;13.40;84.20;;;;;;6128762;23;20037;-82
2024/02/08 12:19:05;;;;;;;0.10;0.10;;;13.40;84.10;;;;;;6130338;23;20057;-78
2024/02/08 12:21:35;;;;;;;0.10;0.10;;;13.40;84.20;;;;;;6130901;23;20025;-79
2024/02/08 12:24:01;;;;;;;0.10;0.10;;;13.30;83.90;;;;;;6130139;23;19998;-78
2024/02/08 12:26:31;;;;;;;0.10;0.10;;;13.30;84.10;;;;;;6130213;23;20100;-77
2024/02/08 12:29:02;;;;;;;0.10;0.10;;;13.50;84.00;;;;;;6130208;23;20009;-79
2024/02/08 12:31:32;;;;;;;0.10;0.10;;;13.60;83.30;;;;;;6130079;23;20084;-80
2024/02/08 12:34:03;;;;;;;0.10;0.10;;;13.60;83.40;;;;;;6130087;23;20382;-79
2024/02/08 12:36:31;;;;;;;0.10;0.10;;;13.70;83.30;;;;;;6129669;23;20093;-79
2024/02/08 12:39:01;;;;;;;0.10;0.10;;;13.70;83.10;;;;;;6130525;23;20029;-83
2024/02/08 12:41:29;;;;;;;0.10;0.10;;;13.80;83.10;;;;;;6104201;23;20041;-83
2024/02/08 12:43:56;;;;;;;0.10;0.10;;;13.70;82.40;;;;;;6104010;23;20006;-79
2024/02/08 12:46:22;;;;;;;0.10;0.10;;;13.80;82.80;;;;;;6129790;23;20338;-78
2024/02/08 12:48:48;;;;;;;0.10;0.10;;;13.80;82.20;;;;;;6104615;23;20009;-78
2024/02/08 12:51:22;;;;;;;0.10;0.10;;;13.90;82.10;;;;;;6103523;23;20006;-78
2024/02/08 12:54:07;;;;;;;0.10;0.10;;;13.80;81.60;;;;;;6130055;23;20497;-79
2024/02/08 12:56:39;;;;;;;0.10;0.10;;;13.70;81.90;;;;;;6130244;23;20005;-84
2024/02/08 12:59:05;;;;;;;0.10;0.10;;;13.70;82.10;;;;;;6103208;23;20434;-82
2024/02/08 13:01:47;;;;;;;0.10;0.10;;;13.70;81.80;;;;;;6103759;23;20442;-79
2024/02/08 13:04:19;;;;;;;0.10;0.10;;;13.80;81.80;;;;;;6104470;23;20080;-83
2024/02/08 13:06:51;;;;;;;0.10;0.10;;;13.80;81.60;;;;;;6129320;23;20009;-87
2024/02/08 13:09:29;;;;;;;0.10;0.10;;;13.70;81.80;;;;;;6130111;23;20009;-80
2024/02/08 13:12:18;;;;;;;0.10;0.10;;;13.70;81.60;;;;;;6129872;23;20430;-80
2024/02/08 13:14:50;;;;;;;0.10;0.10;;;13.80;81.80;;;;;;6103914;23;20430;-80
2024/02/08 13:17:20;;;;;;;0.10;0.10;;;13.90;81.30;;;;;;6130269;23;20005;-80
2024/02/08 13:19:47;;;;;;;0.10;0.10;;;14.00;81.20;;;;;;6129688;23;20338;-81
2024/02/08 13:22:14;;;;;;;0.10;0.10;;;13.90;81.20;;;;;;6129535;23;20006;-80
2024/02/08 13:24:40;;;;;;;0.10;0.10;;;14.00;81.40;;;;;;6103847;23;20033;-81
2024/02/08 13:27:06;;;;;;;0.10;0.10;;;13.90;81.20;;;;;;6129892;23;20049;-81
2024/02/08 13:29:34;;;;;;;0.10;0.10;;;13.80;80.60;;;;;;6129520;23;20077;-81
2024/02/08 13:32:01;;;;;;;0.10;0.10;;;13.80;81.30;;;;;;6119355;23;20386;-79
2024/02/08 13:34:27;;;;;;;0.10;0.10;;;13.80;81.60;;;;;;6152564;23;20005;-81
2024/02/08 13:36:52;;;;;;;0.10;0.10;;;13.80;81.60;;;;;;6129724;23;20070;-80
2024/02/08 13:39:25;;;;;;;0.10;0.10;;;13.70;81.40;;;;;;6129763;23;20002;-81
2024/02/08 13:41:51;;;;;;;0.10;0.10;;;13.80;81.80;;;;;;6129455;23;20338;-82
2024/02/08 13:44:20;;;;;;;0.10;0.10;;;14.00;81.60;;;;;;6127386;23;20005;-82
2024/02/08 13:46:48;;;;;;;0.10;0.10;;;14.10;81.70;;;;;;6129083;23;20057;-80
2024/02/08 13:49:15;;;;;;;0.10;0.10;;;14.10;81.60;;;;;;6127884;23;19998;-81
2024/02/08 13:51:44;;;;;;;0.10;0.10;;;14.20;81.50;;;;;;6152411;23;20006;-81
2024/02/08 13:54:13;;;;;;;0.10;0.10;;;14.20;81.10;;;;;;6129546;23;20427;-81
2024/02/08 13:56:40;;;;;;;0.10;0.10;;;14.20;81.00;;;;;;6152708;23;20002;-81
2024/02/08 13:59:06;;;;;;;0.10;0.10;;;14.10;80.90;;;;;;6129826;23;20077;-78
2024/02/08 14:01:32;;;;;;;0.10;0.10;;;14.00;80.70;;;;;;6129079;23;19998;-78
2024/02/08 14:03:58;;;;;;;0.10;0.10;;;14.00;80.60;;;;;;6127689;23;20482;-78
2024/02/08 14:06:25;;;;;;;0.10;0.10;;;13.90;80.70;;;;;;6129661;23;19994;-78
2024/02/08 14:08:54;;;;;;;0.10;0.10;;;13.90;80.30;;;;;;6127213;23;20017;-77
2024/02/08 14:11:25;;;;;;;0.10;0.10;;;14.00;80.20;;;;;;6153235;23;20058;-78
2024/02/08 14:13:51;;;;;;;0.10;0.10;;;14.20;79.90;;;;;;6130874;23;20002;-78
2024/02/08 14:16:20;;;;;;;0.10;0.10;;;14.20;79.60;;;;;;6131431;23;20459;-78
2024/02/08 14:18:49;;;;;;;0.10;0.10;;;14.20;79.80;;;;;;6131541;23;20036;-78
2024/02/08 14:21:25;;;;;;;0.17;0.17;;;14.20;79.90;;;;;;6129392;23;20010;-78
2024/02/08 14:23:53;;;;;;;0.10;0.10;;;14.20;79.80;;;;;;6131457;23;20006;-77
2024/02/08 14:28:48;;;;;;;0.10;0.10;;;14.30;78.90;;;;;;6131187;23;20010;-78
2024/02/08 14:31:17;;;;;;;0.10;0.10;;;14.20;79.10;;;;;;6129915;23;20093;-78
2024/02/08 14:33:46;;;;;;;0.10;0.10;;;14.20;79.20;;;;;;6154369;23;20081;-78
2024/02/08 14:36:13;;;;;;;0.10;0.10;;;14.00;78.50;;;;;;6130797;23;20002;-78
2024/02/08 14:38:40;;;;;;;0.10;0.10;;;14.10;78.20;;;;;;6131664;23;20006;-78
2024/02/08 14:43:54;;;;;;;0.10;0.10;;;14.00;79.00;;;;;;6130669;23;20017;-77
2024/02/08 14:46:25;;;;;;;0.10;0.10;;;14.00;78.80;;;;;;6130065;23;20085;-78
2024/02/08 14:48:52;;;;;;;0.10;0.10;;;13.90;79.50;;;;;;6131146;23;20010;-77
2024/02/08 14:53:53;;;;;;;0.10;0.10;;;13.80;79.70;;;;;;6131515;23;20013;-77
2024/02/08 14:56:21;;;;;;;0.10;0.10;;;13.60;80.60;;;;;;6131137;23;20004;-78
2024/02/08 14:58:57;;;;;;;0.10;0.10;;;13.30;81.30;;;;;;6154389;23;20078;-78
2024/02/08 15:01:38;;;;;;;0.10;0.10;;;13.30;82.80;;;;;;6130889;23;20037;-77
2024/02/08 15:04:16;;;;;;;0.10;0.10;;;13.10;84.00;;;;;;6130774;23;20085;-77
2024/02/08 15:07:06;;;;;;;0.10;0.10;;;13.00;84.30;;;;;;6130620;23;19998;-78
2024/02/08 15:14:36;;;;;;;0.10;0.10;;;12.80;86.00;;;;;;6131057;23;20398;-77
2024/02/08 15:17:18;;;;;;;0.10;0.10;;;12.70;86.40;;;;;;6130613;23;20012;-77
2024/02/08 15:19:48;;;;;;;0.10;0.10;;;12.70;86.70;;;;;;6131033;23;20007;-77
2024/02/08 15:24:57;;;;;;;0.10;0.10;;;12.60;87.20;;;;;;6131142;23;20338;-77
2024/02/08 15:27:34;;;;;;;0.10;0.10;;;12.50;87.70;;;;;;6130647;23;20442;-77
2024/02/08 15:30:11;;;;;;;0.10;0.10;;;12.40;88.20;;;;;;6128908;23;20002;-77
2024/02/08 15:32:46;;;;;;;0.10;0.10;;;12.30;88.40;;;;;;6130765;23;20438;-77
2024/02/08 15:35:26;;;;;;;0.10;0.10;;;12.30;88.40;;;;;;6104677;23;20061;-77
2024/02/08 15:40:44;;;;;;;0.10;0.10;;;12.20;89.10;;;;;;6130771;23;20299;-77
2024/02/08 15:43:15;;;;;;;0.10;0.10;;;12.20;89.20;;;;;;6130298;23;20028;-77
2024/02/08 15:45:41;;;;;;;0.10;0.10;;;12.10;89.10;;;;;;6130604;23;20029;-77
2024/02/08 15:48:11;;;;;;;0.10;0.10;;;12.10;89.10;;;;;;6130330;23;20442;-77
2024/02/08 15:50:46;;;;;;;0.10;0.10;;;12.00;89.20;;;;;;6130145;23;20002;-78
2024/02/08 15:53:18;;;;;;;0.10;0.10;;;12.00;89.20;;;;;;6129909;23;20002;-78
2024/02/08 15:55:55;;;;;;;0.10;0.10;;;12.00;89.50;;;;;;6104415;23;20006;-78
2024/02/08 15:58:28;;;;;;;0.10;0.10;;;11.90;89.50;;;;;;6104799;23;20066;-78
2024/02/08 16:01:17;;;;;;;;;;;11.90;89.50;;;;;;6130832;23;20088;-78
2024/02/08 16:03:55;;;;;;;0.10;0.10;;;11.90;89.50;;;;;;6129599;23;19905;-78
2024/02/08 16:06:41;;;;;;;0.10;0.10;;;12.00;89.50;;;;;;6130389;23;20085;-78
2024/02/08 16:09:25;;;;;;;0.10;0.10;;;11.90;89.60;;;;;;6130048;23;20006;-78
2024/02/08 16:12:13;;;;;;;0.10;0.10;;;11.90;89.80;;;;;;6130091;23;20002;-79
2024/02/08 16:14:49;;;;;;;0.10;0.10;;;11.90;89.80;;;;;;6103329;23;20071;-78
2024/02/08 16:25:47;;;;;;;0.10;0.10;;;11.80;90.10;;;;;;6129451;23;20017;-78
2024/02/08 16:28:17;;;;;;;0.10;0.10;;;11.90;90.00;;;;;;6129842;23;20012;-78
2024/02/08 16:33:41;;;;;;;0.10;0.10;;;11.80;89.90;;;;;;6129917;23;20017;-78
2024/02/08 16:41:47;;;;;;;0.10;0.10;;;11.80;89.70;;;;;;6130446;23;20017;-78
2024/02/08 16:44:22;;;;;;;;;;;11.80;89.70;;;;;;6130063;23;20081;-78
2024/02/08 16:46:55;;;;;;;0.10;0.10;;;11.80;89.90;;;;;;6130163;23;19901;-77
2024/02/08 16:49:27;;;;;;;0.10;0.10;;;11.70;89.80;;;;;;6129754;23;20002;-78
2024/02/08 16:51:56;;;;;;;0.10;0.10;;;11.70;89.90;;;;;;6129934;23;20002;-77
2024/02/08 16:54:33;;;;;;;0.10;0.10;;;11.80;89.90;;;;;;6127809;23;20143;-78
2024/02/08 16:57:03;;;;;;;0.10;0.10;;;11.70;90.10;;;;;;6103127;23;20010;-77
2024/02/08 16:59:35;;;;;;;0.10;0.10;;;11.70;89.90;;;;;;6102646;23;20424;-78
2024/02/08 17:02:07;;;;;;;0.10;0.10;;;11.70;90.00;;;;;;6102708;23;20489;-78
2024/02/08 17:04:47;;;;;;;0.10;0.10;;;11.70;90.10;;;;;;6128841;23;20006;-78
2024/02/08 17:07:24;;;;;;;0.10;0.10;;;11.70;90.30;;;;;;6128854;23;20057;-79
2024/02/08 17:09:57;;;;;;;0.10;0.10;;;11.60;90.30;;;;;;6130080;23;20074;-79
2024/02/08 17:12:36;;;;;;;0.10;0.10;;;11.60;90.60;;;;;;6129926;23;20006;-79
2024/02/08 17:15:20;;;;;;;0.10;0.10;;;11.70;90.60;;;;;;6128969;23;20006;-79
2024/02/08 17:17:50;;;;;;;0.10;0.10;;;11.60;90.40;;;;;;6083072;23;20013;-80
2024/02/08 17:23:08;;;;;;;0.03;0.03;;;11.70;90.50;;;;;;6127806;23;20020;-80
2024/02/08 17:25:42;;;;;;;0.10;0.10;;;11.70;90.30;;;;;;6126020;23;20547;-83
2024/02/08 17:28:14;;;;;;;0.10;0.10;;;11.60;90.20;;;;;;6127086;23;20148;-83
2024/02/08 17:33:25;;;;;;;0.10;0.10;;;11.60;90.30;;;;;;6127196;23;20025;-81
2024/02/08 17:35:55;;;;;;;0.00;0.00;;;11.60;90.50;;;;;;6126234;23;20049;-80
2024/02/08 17:38:28;;;;;;;0.10;0.10;;;11.60;90.50;;;;;;6128994;23;20012;-83
2024/02/08 17:40:55;;;;;;;0.00;0.00;;;11.50;90.50;;;;;;6128615;23;20006;-82
2024/02/08 17:43:23;;;;;;;0.10;0.10;;;11.50;90.50;;;;;;6102499;23;20033;-82
2024/02/08 17:45:56;;;;;;;0.10;0.10;;;11.50;90.30;;;;;;6100097;23;20084;-80
2024/02/08 17:48:28;;;;;;;0.10;0.10;;;11.60;90.30;;;;;;6128418;23;20006;-80
2024/02/08 17:50:58;;;;;;;0.10;0.10;;;11.50;90.20;;;;;;6128576;23;20002;-80
2024/02/08 17:53:27;;;;;;;0.10;0.10;;;11.60;90.40;;;;;;6127094;23;20406;-81
2024/02/08 17:55:54;;;;;;;0.10;0.10;;;11.60;90.10;;;;;;6128005;23;20005;-80
2024/02/08 17:58:23;;;;;;;0.10;0.10;;;11.50;89.90;;;;;;6128184;23;20047;-76
2024/02/08 18:00:51;;;;;;;0.10;0.10;;;11.50;89.90;;;;;;6102717;23;20006;-76
2024/02/08 18:03:25;;;;;;;0.10;0.10;;;11.50;90.00;;;;;;6128359;23;20434;-87
2024/02/08 18:05:56;;;;;;;0.10;0.10;;;11.50;90.00;;;;;;6126506;23;20006;-81
2024/02/08 18:08:25;;;;;;;0.10;0.10;;;11.50;90.10;;;;;;6102726;23;20017;-78
2024/02/08 18:10:52;;;;;;;0.10;0.10;;;11.50;90.10;;;;;;6102974;23;20013;-79
2024/02/08 18:13:21;;;;;;;0.10;0.10;;;11.50;89.90;;;;;;6128205;23;20009;-79
2024/02/08 18:15:53;;;;;;;0.10;0.10;;;11.50;90.30;;;;;;6103148;23;20002;-78
2024/02/08 18:18:29;;;;;;;0.10;0.10;;;11.50;90.30;;;;;;6128908;23;20140;-78
2024/02/08 18:20:57;;;;;;;0.10;0.10;;;11.50;90.00;;;;;;6128766;23;20002;-78
2024/02/08 18:23:32;;;;;;;0.10;0.10;;;11.50;90.20;;;;;;6128322;23;20383;-79
2024/02/08 18:26:03;;;;;;;0.05;0.05;;;11.50;90.10;;;;;;6128535;23;20013;-79
2024/02/08 18:28:31;;;;;;;0.10;0.10;;;11.50;90.20;;;;;;6102463;23;20097;-80
2024/02/08 18:31:05;;;;;;;0.10;0.10;;;11.40;90.20;;;;;;6128936;23;20025;-79
2024/02/08 18:33:32;;;;;;;0.20;0.10;;;11.50;90.30;;;;;;6128593;23;19998;-79
2024/02/08 18:36:04;;;;;;;0.10;0.10;;;11.40;90.30;;;;;;6128442;23;20006;-79
2024/02/08 18:38:33;;;;;;;0.10;0.10;;;11.40;90.10;;;;;;6123550;23;20010;-79
2024/02/08 18:41:01;;;;;;;0.10;0.10;;;11.50;90.10;;;;;;6098238;23;20013;-84
2024/02/08 18:43:36;;;;;;;0.10;0.10;;;11.50;89.90;;;;;;6102217;23;20013;-79
2024/02/08 18:46:05;;;;;;;0.10;0.10;;;11.50;89.60;;;;;;6101302;23;20005;-84
2024/02/08 18:48:39;;;;;;;0.10;0.10;;;11.50;89.80;;;;;;6103283;23;20017;-76
2024/02/08 18:51:06;;;;;;;0.10;0.10;;;11.50;89.70;;;;;;6132204;23;20438;-80
2024/02/08 18:53:38;;;;;;;0.10;0.10;;;11.60;89.70;;;;;;6102020;23;20009;-78
2024/02/08 18:56:10;;;;;;;0.10;0.10;;;11.60;89.70;;;;;;6101627;23;20002;-76
2024/02/08 18:58:38;;;;;;;0.10;0.10;;;11.50;89.70;;;;;;6127775;23;20013;-76
2024/02/08 19:01:07;;;;;;;0.10;0.10;;;11.50;89.50;;;;;;6127938;23;20002;-77
2024/02/08 19:03:36;;;;;;;0.10;0.10;;;11.60;89.50;;;;;;6124705;23;20395;-76
2024/02/08 19:06:01;;;;;;;0.10;0.10;;;11.60;89.40;;;;;;6125645;23;20006;-77
2024/02/08 19:08:33;;;;;;;0.00;0.00;;;11.60;89.50;;;;;;6105811;23;20020;-77
2024/02/08 19:10:59;;;;;;;0.10;0.10;;;11.60;89.40;;;;;;6130146;23;20057;-78
2024/02/08 19:13:30;;;;;;;0.10;0.10;;;11.60;89.30;;;;;;6104415;23;20433;-76
2024/02/08 19:16:00;;;;;;;0.10;0.10;;;11.60;89.30;;;;;;6131113;23;19998;-76
2024/02/08 19:18:26;;;;;;;0.10;0.10;;;11.60;89.40;;;;;;6104577;23;20038;-75
2024/02/08 19:20:56;;;;;;;0.10;0.10;;;11.60;89.60;;;;;;6130936;23;20002;-75
2024/02/08 19:23:24;;;;;;;0.10;0.10;;;11.60;89.80;;;;;;6130317;23;20530;-78
2024/02/08 19:25:54;;;;;;;0.10;0.10;;;11.50;90.10;;;;;;6130929;23;20002;-76
2024/02/08 19:28:24;;;;;;;0.10;0.10;;;11.50;90.30;;;;;;6130273;23;20002;-76
2024/02/08 19:30:55;;;;;;;0.10;0.10;;;11.50;90.70;;;;;;6130187;23;20061;-78
2024/02/08 19:33:25;;;;;;;0.10;0.10;;;11.50;90.90;;;;;;6105075;23;20002;-79
2024/02/08 19:35:56;;;;;;;0.10;0.10;;;11.50;91.00;;;;;;6104836;23;20010;-78
2024/02/08 19:38:25;;;;;;;0.10;0.10;;;11.50;91.10;;;;;;6130317;23;20002;-79
2024/02/08 19:40:53;;;;;;;0.10;0.10;;;11.50;90.80;;;;;;6105203;23;20010;-78
2024/02/08 19:43:20;;;;;;;0.10;0.10;;;11.50;90.90;;;;;;6129377;23;20013;-79
2024/02/08 19:45:45;;;;;;;0.10;0.10;;;11.60;90.90;;;;;;6129686;23;20097;-85
2024/02/08 19:48:17;;;;;;;0.10;0.10;;;11.60;90.70;;;;;;6130494;23;20010;-80
2024/02/08 19:50:45;;;;;;;0.10;0.10;;;11.70;90.50;;;;;;6130449;23;20006;-80
2024/02/08 19:53:11;;;;;;;0.10;0.10;;;11.60;90.50;;;;;;6129819;23;19998;-81
2024/02/08 19:55:37;;;;;;;0.10;0.10;;;11.70;90.50;;;;;;6104328;23;20029;-80
2024/02/08 19:58:07;;;;;;;0.10;0.10;;;11.70;90.30;;;;;;6104348;23;20010;-80
2024/02/08 20:00:34;;;;;;;0.10;0.10;;;11.70;90.30;;;;;;6129731;23;20006;-79
2024/02/08 20:03:26;;;;;;;0.10;0.10;;;11.80;90.20;;;;;;6130029;23;20064;-79
2024/02/08 20:05:50;;;;;;;0.10;0.10;;;11.80;90.20;;;;;;6128509;23;20104;-77
2024/02/08 20:08:17;;;;;;;0.10;0.10;;;11.80;90.10;;;;;;6097685;23;20114;-78
2024/02/08 20:10:43;;;;;;;0.10;0.10;;;11.80;90.20;;;;;;6126313;23;20398;-78
2024/02/08 20:13:14;;;;;;;0.10;0.10;;;11.80;90.20;;;;;;6101017;23;20006;-79
2024/02/08 20:15:42;;;;;;;0.00;0.00;;;11.80;90.00;;;;;;6127934;23;20008;-81
2024/02/08 20:18:09;;;;;;;0.10;0.10;;;11.80;90.10;;;;;;6092673;23;20739;-80
2024/02/08 20:20:36;;;;;;;0.10;0.10;;;11.80;90.00;;;;;;6123992;23;20412;-80
2024/02/08 20:23:10;;;;;;;0.10;0.10;;;11.80;89.80;;;;;;6128230;23;20085;-79
2024/02/08 20:25:39;;;;;;;0.10;0.10;;;11.80;89.80;;;;;;6127570;23;20006;-80
2024/02/08 20:28:08;;;;;;;0.10;0.10;;;11.80;89.80;;;;;;6101270;23;20462;-80
2024/02/08 20:30:36;;;;;;;0.10;0.10;;;11.90;89.90;;;;;;6127584;23;20036;-79
2024/02/08 20:33:04;;;;;;;0.10;0.10;;;11.90;89.70;;;;;;6127711;23;19998;-79
2024/02/08 20:35:31;;;;;;;0.10;0.10;;;11.90;89.90;;;;;;6101392;23;20001;-80
2024/02/08 20:37:59;;;;;;;0.10;0.10;;;11.90;89.90;;;;;;6126844;23;20006;-79
2024/02/08 20:40:25;;;;;;;0.10;0.10;;;11.90;89.80;;;;;;6100747;23;20034;-79
2024/02/08 20:42:54;;;;;;;0.10;0.10;;;12.00;89.70;;;;;;6126920;23;20009;-80
2024/02/08 20:45:26;;;;;;;0.10;0.10;;;12.00;89.60;;;;;;6125734;23;20013;-79
2024/02/08 20:47:52;;;;;;;0.00;0.00;;;12.00;89.40;;;;;;6098622;23;20010;-79
2024/02/08 20:50:20;;;;;;;0.10;0.10;;;12.00;89.50;;;;;;6125260;23;19998;-79